createdAt,value
2017-10-03T00:02:02.199Z,99.90
2017-10-03T00:04:29.725Z,99.90
2017-10-03T00:06:57.254Z,99.90
2017-10-03T00:09:24.772Z,99.90
2017-10-03T00:11:52.295Z,99.90
2017-10-03T00:14:19.794Z,99.90
2017-10-03T00:16:47.322Z,99.90
2017-10-03T00:19:15.613Z,99.90
2017-10-03T00:21:43.901Z,99.90
2017-10-03T00:24:11.473Z,99.90
2017-10-03T00:26:38.974Z,99.90
2017-10-03T00:29:06.509Z,99.90
2017-10-03T00:31:34.015Z,99.90
2017-10-03T00:34:02.317Z,99.90
2017-10-03T00:36:29.823Z,99.90
2017-10-03T00:38:57.338Z,99.90
2017-10-03T00:41:24.868Z,99.90
2017-10-03T00:43:53.135Z,99.90
2017-10-03T00:46:21.442Z,99.90
2017-10-03T00:48:49.013Z,99.90
2017-10-03T00:51:16.520Z,99.90
2017-10-03T00:53:44.802Z,99.90
2017-10-03T00:56:13.068Z,99.90
2017-10-03T00:58:40.598Z,99.90
2017-10-03T01:01:08.115Z,99.90
2017-10-03T01:03:35.633Z,99.90
2017-10-03T01:06:03.170Z,99.90
2017-10-03T01:08:30.666Z,99.90
2017-10-03T01:10:58.197Z,99.90
2017-10-03T01:13:25.733Z,99.90
2017-10-03T01:15:53.259Z,99.90
2017-10-03T01:18:21.536Z,99.90
2017-10-03T01:20:49.839Z,99.90
2017-10-03T01:23:17.350Z,99.90
2017-10-03T01:25:44.960Z,99.90
2017-10-03T01:28:12.474Z,99.90
2017-10-03T01:30:40.746Z,99.90
2017-10-03T01:33:09.067Z,99.90
2017-10-03T01:35:36.577Z,99.90
2017-10-03T01:38:05.953Z,99.90
2017-10-03T01:40:33.469Z,99.90
2017-10-03T01:43:00.962Z,99.90
2017-10-03T01:45:28.494Z,99.90
2017-10-03T01:47:56.003Z,99.90
2017-10-03T01:50:24.315Z,99.90
2017-10-03T01:52:51.825Z,99.90
2017-10-03T01:55:19.428Z,99.90
2017-10-03T01:57:47.836Z,99.90
2017-10-03T02:00:15.352Z,99.90
2017-10-03T02:02:43.652Z,99.90
2017-10-03T02:05:11.185Z,99.90
2017-10-03T02:07:38.711Z,99.90
2017-10-03T02:10:06.997Z,99.90
2017-10-03T02:12:35.293Z,99.90
2017-10-03T02:15:02.786Z,99.90
2017-10-03T02:17:30.319Z,99.90
2017-10-03T02:19:57.969Z,99.90
2017-10-03T02:22:25.492Z,99.90
2017-10-03T02:24:53.024Z,99.90
2017-10-03T02:27:20.527Z,99.90
2017-10-03T02:29:48.841Z,99.90
2017-10-03T02:32:16.353Z,99.90
2017-10-03T02:34:44.634Z,99.90
2017-10-03T02:37:12.928Z,99.90
2017-10-03T02:39:40.440Z,99.90
2017-10-03T02:42:08.062Z,99.90
2017-10-03T02:44:35.564Z,99.90
2017-10-03T02:47:03.841Z,99.90
2017-10-03T02:49:31.454Z,99.90
2017-10-03T02:51:58.969Z,99.90
2017-10-03T02:54:27.250Z,99.90
2017-10-03T02:56:55.554Z,99.90
2017-10-03T02:59:23.051Z,99.90
2017-10-03T03:01:50.588Z,99.90
2017-10-03T03:04:18.087Z,99.90
2017-10-03T03:06:45.585Z,99.90
2017-10-03T03:09:13.129Z,99.90
2017-10-03T03:11:41.434Z,99.90
2017-10-03T03:14:08.970Z,99.90
2017-10-03T03:16:36.587Z,99.90
2017-10-03T03:19:04.212Z,99.90
2017-10-03T03:21:31.726Z,99.90
2017-10-03T03:23:59.231Z,99.90
2017-10-03T03:26:26.769Z,99.90
2017-10-03T03:28:54.289Z,99.90
2017-10-03T03:31:21.905Z,99.90
2017-10-03T03:33:49.402Z,99.90
2017-10-03T03:36:16.920Z,99.90
2017-10-03T03:38:44.453Z,99.90
2017-10-03T03:41:12.722Z,99.90
2017-10-03T03:43:41.003Z,99.90
2017-10-03T03:46:09.315Z,99.90
2017-10-03T03:48:36.814Z,99.90
2017-10-03T03:51:04.352Z,99.90
2017-10-03T03:53:31.847Z,99.90
2017-10-03T03:56:00.155Z,99.90
2017-10-03T03:58:27.659Z,99.90
2017-10-03T04:00:55.187Z,99.90
2017-10-03T04:03:22.705Z,99.90
2017-10-03T04:05:51.016Z,99.90
2017-10-03T04:08:18.522Z,99.90
2017-10-03T04:10:46.027Z,99.90
2017-10-03T04:13:13.547Z,99.90
2017-10-03T04:15:41.826Z,99.90
2017-10-03T04:18:10.135Z,99.90
2017-10-03T04:20:37.695Z,99.90
2017-10-03T04:23:05.241Z,99.90
2017-10-03T04:25:32.761Z,99.90
2017-10-03T04:28:00.313Z,99.90
2017-10-03T04:30:27.815Z,99.90
2017-10-03T04:32:55.310Z,99.90
2017-10-03T04:35:22.833Z,99.90
2017-10-03T04:37:50.358Z,99.90
2017-10-03T04:40:17.876Z,99.90
2017-10-03T04:42:45.421Z,99.90
2017-10-03T04:45:12.937Z,99.90
2017-10-03T04:47:41.225Z,99.90
2017-10-03T04:50:09.534Z,99.90
2017-10-03T04:52:37.057Z,99.90
2017-10-03T04:55:05.361Z,99.90
2017-10-03T04:57:32.858Z,99.90
2017-10-03T05:00:00.398Z,99.90
2017-10-03T05:02:27.920Z,99.90
2017-10-03T05:04:56.196Z,99.90
2017-10-03T05:07:23.729Z,99.90
2017-10-03T05:09:51.226Z,99.90
2017-10-03T05:12:18.772Z,99.90
2017-10-03T05:14:47.173Z,99.90
2017-10-03T05:17:14.733Z,99.90
2017-10-03T05:19:42.255Z,99.90
2017-10-03T05:22:10.541Z,99.90
2017-10-03T05:24:38.063Z,99.90
2017-10-03T05:27:05.687Z,99.90
2017-10-03T05:29:33.237Z,99.90
2017-10-03T05:32:00.754Z,99.90
2017-10-03T05:34:29.034Z,99.90
2017-10-03T05:36:56.555Z,99.90
2017-10-03T05:39:24.060Z,99.90
2017-10-03T05:41:52.370Z,99.90
2017-10-03T05:44:19.888Z,99.90
2017-10-03T05:46:48.208Z,99.90
2017-10-03T05:49:15.715Z,99.90
2017-10-03T05:51:43.326Z,99.90
2017-10-03T05:54:10.843Z,99.90
2017-10-03T05:56:38.357Z,99.90
2017-10-03T05:59:06.664Z,99.90
2017-10-03T06:01:34.167Z,99.90
2017-10-03T06:04:01.671Z,99.90
2017-10-03T06:06:29.202Z,99.90
2017-10-03T06:08:56.698Z,99.90
2017-10-03T06:11:24.203Z,99.90
2017-10-03T06:13:51.739Z,99.90
2017-10-03T06:16:19.243Z,99.90
2017-10-03T06:18:47.546Z,99.90
2017-10-03T06:21:15.059Z,99.90
2017-10-03T06:23:42.579Z,99.90
2017-10-03T06:26:10.118Z,99.90
2017-10-03T06:28:37.644Z,99.90
2017-10-03T06:31:05.167Z,99.90
2017-10-03T06:33:32.671Z,99.90
2017-10-03T06:36:00.194Z,99.90
2017-10-03T06:38:28.463Z,99.90
2017-10-03T06:40:56.760Z,99.90
2017-10-03T06:43:24.343Z,99.90
2017-10-03T06:45:51.866Z,99.90
2017-10-03T06:48:20.163Z,99.90
2017-10-03T06:50:47.894Z,99.90
2017-10-03T06:53:15.507Z,99.90
2017-10-03T06:55:43.037Z,99.90
2017-10-03T06:58:10.582Z,99.90
2017-10-03T07:00:38.110Z,99.90
2017-10-03T07:03:05.637Z,99.90
2017-10-03T07:05:33.157Z,99.90
2017-10-03T07:08:00.705Z,99.90
2017-10-03T07:10:28.216Z,99.90
2017-10-03T07:12:55.786Z,99.90
2017-10-03T07:15:24.095Z,99.90
2017-10-03T07:17:51.665Z,99.90
2017-10-03T07:20:19.191Z,99.90
2017-10-03T07:22:46.714Z,99.90
2017-10-03T07:25:14.210Z,99.90
2017-10-03T07:27:41.757Z,99.90
2017-10-03T07:30:10.045Z,99.90
2017-10-03T07:32:37.573Z,99.90
2017-10-03T07:35:05.109Z,99.90
2017-10-03T07:37:32.621Z,99.90
2017-10-03T07:40:00.143Z,99.90
2017-10-03T07:42:28.415Z,99.90
2017-10-03T07:44:55.933Z,99.90
2017-10-03T07:47:24.229Z,99.90
2017-10-03T07:49:51.722Z,99.90
2017-10-03T07:52:20.760Z,99.90
2017-10-03T07:54:48.262Z,99.90
2017-10-03T07:57:15.763Z,99.90
2017-10-03T07:59:43.337Z,99.90
2017-10-03T08:02:10.839Z,99.90
2017-10-03T08:04:38.360Z,99.90
2017-10-03T08:07:05.901Z,99.90
2017-10-03T08:09:33.395Z,99.90
2017-10-03T08:12:00.887Z,99.90
2017-10-03T08:14:29.299Z,99.90
2017-10-03T08:16:56.859Z,99.90
2017-10-03T08:19:24.356Z,99.90
2017-10-03T08:21:51.906Z,99.90
2017-10-03T08:24:19.408Z,99.90
2017-10-03T08:26:47.688Z,99.90
2017-10-03T08:29:15.994Z,99.90
2017-10-03T08:31:43.492Z,99.90
2017-10-03T08:34:12.516Z,99.90
2017-10-03T08:36:40.097Z,99.90
2017-10-03T08:39:08.363Z,99.90
2017-10-03T08:41:35.863Z,99.90
2017-10-03T08:44:06.445Z,99.90
2017-10-03T08:46:34.081Z,99.90
2017-10-03T08:49:01.602Z,99.90
2017-10-03T08:51:29.882Z,99.90
2017-10-03T08:53:57.391Z,99.90
2017-10-03T08:56:24.926Z,99.90
2017-10-03T08:58:52.455Z,99.90
2017-10-03T09:01:20.733Z,99.90
2017-10-03T09:03:49.027Z,99.90
2017-10-03T09:06:16.527Z,99.90
2017-10-03T09:08:44.058Z,99.90
2017-10-03T09:11:11.605Z,99.90
2017-10-03T09:13:39.116Z,99.90
2017-10-03T09:16:07.417Z,99.90
2017-10-03T09:18:34.915Z,99.90
2017-10-03T09:21:02.443Z,99.90
2017-10-03T09:23:29.973Z,99.90
2017-10-03T09:25:57.489Z,99.90
2017-10-03T09:28:25.002Z,99.90
2017-10-03T09:30:52.513Z,99.90
2017-10-03T09:33:20.818Z,99.90
2017-10-03T09:35:48.352Z,99.90
2017-10-03T09:38:15.869Z,99.90
2017-10-03T09:40:44.272Z,99.90
2017-10-03T09:43:11.790Z,99.90
2017-10-03T09:45:40.093Z,99.90
2017-10-03T09:48:07.664Z,99.90
2017-10-03T09:50:35.173Z,99.90
2017-10-03T09:53:02.783Z,99.90
2017-10-03T09:55:30.278Z,99.90
2017-10-03T09:57:57.813Z,99.90
2017-10-03T10:00:25.303Z,99.90
2017-10-03T10:02:52.823Z,99.90
2017-10-03T10:05:20.583Z,99.90
2017-10-03T10:07:48.083Z,99.90
2017-10-03T10:10:15.702Z,99.90
2017-10-03T10:12:43.210Z,99.90
2017-10-03T10:15:10.716Z,99.90
2017-10-03T10:17:38.242Z,99.90
2017-10-03T10:20:05.740Z,99.90
2017-10-03T10:22:33.457Z,99.90
2017-10-03T10:25:00.978Z,99.90
2017-10-03T10:27:29.445Z,99.90
2017-10-03T10:29:57.462Z,99.90
2017-10-03T10:32:25.023Z,99.90
2017-10-03T10:34:52.566Z,99.90
2017-10-03T10:37:20.095Z,99.90
2017-10-03T10:39:47.608Z,99.90
2017-10-03T10:42:15.145Z,97.70
2017-10-03T10:44:42.652Z,97.40
2017-10-03T10:47:10.910Z,94.00
2017-10-03T10:49:38.427Z,94.00
2017-10-03T10:52:05.971Z,88.90
2017-10-03T10:54:33.503Z,94.10
2017-10-03T10:57:01.821Z,99.50
2017-10-03T10:59:29.374Z,99.50
2017-10-03T11:01:56.905Z,99.90
2017-10-03T11:04:25.166Z,99.90
2017-10-03T11:06:52.701Z,99.90
2017-10-03T11:09:20.218Z,99.90
2017-10-03T11:11:47.730Z,99.90
2017-10-03T11:14:15.269Z,99.90
2017-10-03T11:16:42.805Z,99.90
2017-10-03T11:19:10.331Z,99.90
2017-10-03T11:21:38.609Z,96.10
2017-10-03T11:27:11.192Z,73.70
2017-10-03T11:29:39.496Z,49.90
2017-10-03T11:32:06.986Z,49.80
2017-10-03T11:34:34.526Z,43.40
2017-10-03T11:37:02.053Z,45.10
2017-10-03T11:39:30.342Z,76.30
2017-10-03T11:41:57.883Z,76.20
2017-10-03T11:44:26.139Z,95.00
2017-10-03T11:46:53.653Z,94.90
2017-10-03T11:49:21.186Z,95.30
2017-10-03T11:51:49.458Z,81.70
2017-10-03T11:54:17.764Z,71.90
2017-10-03T11:56:45.263Z,71.90
2017-10-03T11:59:12.778Z,77.00
2017-10-03T12:01:40.304Z,76.70
2017-10-03T12:04:08.703Z,57.00
2017-10-03T12:06:36.234Z,56.80
2017-10-03T12:09:04.705Z,54.20
2017-10-03T12:11:32.984Z,44.70
2017-10-03T12:14:00.518Z,44.60
2017-10-03T12:16:28.029Z,41.10
2017-10-03T12:18:55.606Z,41.10
2017-10-03T12:21:23.116Z,49.60
2017-10-03T12:23:50.623Z,58.10
2017-10-03T12:26:18.157Z,72.90
2017-10-03T12:28:46.433Z,99.40
2017-10-03T12:31:14.738Z,99.90
2017-10-03T12:33:42.248Z,99.90
2017-10-03T12:36:09.752Z,99.90
2017-10-03T12:38:37.269Z,99.90
2017-10-03T12:41:05.545Z,99.90
2017-10-03T12:43:33.839Z,99.90
2017-10-03T12:46:02.117Z,99.90
2017-10-03T12:48:29.629Z,99.90
2017-10-03T12:50:57.357Z,99.90
2017-10-03T12:53:24.913Z,99.90
2017-10-03T12:55:52.431Z,99.90
2017-10-03T12:58:20.342Z,99.90
2017-10-03T13:00:47.889Z,70.60
2017-10-03T13:03:15.398Z,51.50
2017-10-03T13:05:42.890Z,46.00
2017-10-03T13:08:11.192Z,52.50
2017-10-03T13:10:38.706Z,52.50
2017-10-03T13:13:06.249Z,60.70
2017-10-03T13:15:33.742Z,75.30
2017-10-03T13:18:02.044Z,96.60
2017-10-03T13:20:29.548Z,96.60
2017-10-03T13:22:57.810Z,99.40
2017-10-03T13:25:25.342Z,99.40
2017-10-03T13:27:53.609Z,99.90
2017-10-03T13:30:21.123Z,99.90
2017-10-03T13:32:48.633Z,99.90
2017-10-03T13:35:16.156Z,99.90
2017-10-03T13:37:44.414Z,99.90
2017-10-03T13:40:12.763Z,99.90
2017-10-03T13:42:40.264Z,99.90
2017-10-03T13:45:07.767Z,99.90
2017-10-03T13:47:36.061Z,99.90
2017-10-03T13:50:03.584Z,99.90
2017-10-03T13:52:31.109Z,99.90
2017-10-03T13:54:59.406Z,99.90
2017-10-03T13:57:26.987Z,99.90
2017-10-03T13:59:54.517Z,99.90
2017-10-03T14:02:22.784Z,99.90
2017-10-03T14:04:51.079Z,99.90
2017-10-03T14:07:18.574Z,99.90
2017-10-03T14:09:46.853Z,99.90
2017-10-03T14:12:15.127Z,97.70
2017-10-03T14:14:43.388Z,89.90
2017-10-03T14:17:10.918Z,89.60
2017-10-03T14:19:38.438Z,82.70
2017-10-03T14:22:05.945Z,72.90
2017-10-03T14:24:33.477Z,67.90
2017-10-03T14:27:00.997Z,80.60
2017-10-03T14:29:28.546Z,75.40
2017-10-03T14:31:56.047Z,75.00
2017-10-03T14:34:23.573Z,81.20
2017-10-03T14:36:51.086Z,93.60
2017-10-03T14:39:18.593Z,96.20
2017-10-03T14:41:46.127Z,99.80
2017-10-03T14:44:14.400Z,99.90
2017-10-03T14:46:41.909Z,99.90
2017-10-03T14:49:11.051Z,99.90
2017-10-03T14:51:38.564Z,99.90
2017-10-03T14:54:06.117Z,99.90
2017-10-03T14:56:33.726Z,99.90
2017-10-03T14:59:01.237Z,99.90
2017-10-03T15:01:28.755Z,99.90
2017-10-03T15:03:57.033Z,99.90
2017-10-03T15:06:25.450Z,99.90
2017-10-03T15:08:52.955Z,99.90
2017-10-03T15:11:20.456Z,99.90
2017-10-03T15:13:47.975Z,99.90
2017-10-03T15:16:15.553Z,99.90
2017-10-03T15:18:43.069Z,99.90
2017-10-03T15:21:11.345Z,99.90
2017-10-03T15:23:38.916Z,99.90
2017-10-03T15:26:06.432Z,99.90
2017-10-03T15:28:33.927Z,99.90
2017-10-03T15:31:01.452Z,99.90
2017-10-03T15:33:28.972Z,99.90
2017-10-03T15:35:56.548Z,99.90
2017-10-03T15:38:24.077Z,99.90
2017-10-03T15:40:51.648Z,99.90
2017-10-03T15:43:19.934Z,99.90
2017-10-03T15:45:48.213Z,99.90
2017-10-03T15:48:16.495Z,99.90
2017-10-03T15:50:44.020Z,99.90
2017-10-03T15:53:11.534Z,99.90
2017-10-03T15:55:39.055Z,99.90
2017-10-03T15:58:07.321Z,99.90
2017-10-03T16:00:35.605Z,99.90
2017-10-03T16:03:03.886Z,99.90
2017-10-03T16:05:32.142Z,99.90
2017-10-03T16:08:01.192Z,99.90
2017-10-03T16:10:28.709Z,99.90
2017-10-03T16:12:56.987Z,99.90
2017-10-03T16:15:24.511Z,99.90
2017-10-03T16:17:52.014Z,99.90
2017-10-03T16:20:20.321Z,99.90
2017-10-03T16:22:47.822Z,99.90
2017-10-03T16:25:16.082Z,99.90
2017-10-03T16:27:44.375Z,99.90
2017-10-03T16:30:11.878Z,99.90
2017-10-03T16:32:39.407Z,99.90
2017-10-03T16:35:06.906Z,99.90
2017-10-03T16:37:34.402Z,99.90
2017-10-03T16:40:02.694Z,99.90
2017-10-03T16:42:30.196Z,99.90
2017-10-03T16:44:57.731Z,99.90
2017-10-03T16:47:25.282Z,99.90
2017-10-03T16:49:52.784Z,99.90
2017-10-03T16:52:20.403Z,99.90
2017-10-03T16:54:47.932Z,99.90
2017-10-03T16:57:16.209Z,99.90
2017-10-03T16:59:43.725Z,99.90
2017-10-03T17:02:11.266Z,99.90
2017-10-03T17:04:38.777Z,99.90
2017-10-03T17:07:07.077Z,99.90
2017-10-03T17:09:34.580Z,99.90
2017-10-03T17:12:02.119Z,99.90
2017-10-03T17:14:29.632Z,99.90
2017-10-03T17:16:57.914Z,99.90
2017-10-03T17:19:25.443Z,99.90
2017-10-03T17:21:52.945Z,99.90
2017-10-03T17:24:20.480Z,99.90
2017-10-03T17:26:47.993Z,99.90
2017-10-03T17:29:16.612Z,99.90
2017-10-03T17:31:44.183Z,99.90
2017-10-03T17:34:11.722Z,99.90
2017-10-03T17:36:39.246Z,99.90
2017-10-03T17:39:07.544Z,99.90
2017-10-03T17:41:35.077Z,99.90
2017-10-03T17:44:02.610Z,99.90
2017-10-03T17:46:30.110Z,99.90
2017-10-03T17:48:57.661Z,99.90
2017-10-03T17:51:25.965Z,99.90
2017-10-03T17:53:54.285Z,99.90
2017-10-03T17:56:21.814Z,99.90
2017-10-03T17:58:49.366Z,99.90
2017-10-03T18:01:17.701Z,99.90
2017-10-03T18:03:45.218Z,99.90
2017-10-03T18:06:12.757Z,99.90
2017-10-03T18:08:41.052Z,99.90
2017-10-03T18:11:08.583Z,99.90
2017-10-03T18:13:36.898Z,99.90
2017-10-03T18:16:04.421Z,99.90
2017-10-03T18:18:32.208Z,99.90
2017-10-03T18:20:59.814Z,99.90
2017-10-03T18:23:27.353Z,99.90
2017-10-03T18:25:54.851Z,99.90
2017-10-03T18:28:22.374Z,99.90
2017-10-03T18:30:49.935Z,99.90
2017-10-03T18:33:17.478Z,99.90
2017-10-03T18:35:45.007Z,99.90
2017-10-03T18:38:13.294Z,99.90
2017-10-03T18:40:41.577Z,99.90
2017-10-03T18:43:10.615Z,99.90
2017-10-03T18:45:38.116Z,99.90
2017-10-03T18:48:05.634Z,99.90
2017-10-03T18:50:33.209Z,99.90
2017-10-03T18:53:00.733Z,99.90
2017-10-03T18:55:29.045Z,99.90
2017-10-03T18:57:56.561Z,99.90
2017-10-03T19:00:24.828Z,99.90
2017-10-03T19:02:53.869Z,99.90
2017-10-03T19:05:21.367Z,99.90
2017-10-03T19:07:48.900Z,99.90
2017-10-03T19:10:16.421Z,99.90
2017-10-03T19:12:44.709Z,99.90
2017-10-03T19:15:12.241Z,99.90
2017-10-03T19:17:40.498Z,99.90
2017-10-03T19:20:08.049Z,99.90
2017-10-03T19:22:35.570Z,99.90
2017-10-03T19:25:03.114Z,99.90
2017-10-03T19:27:30.630Z,99.90
2017-10-03T19:29:58.127Z,99.90
2017-10-03T19:32:25.665Z,99.90
2017-10-03T19:34:53.947Z,99.90
2017-10-03T19:37:22.249Z,99.90
2017-10-03T19:39:49.756Z,99.90
2017-10-03T19:42:17.284Z,99.90
2017-10-03T19:44:44.811Z,99.90
2017-10-03T19:47:12.352Z,99.90
2017-10-03T19:49:39.855Z,99.90
2017-10-03T19:52:07.355Z,99.90
2017-10-03T19:54:34.882Z,99.90
2017-10-03T19:57:02.379Z,99.90
2017-10-03T19:59:29.910Z,99.90
2017-10-03T20:01:57.415Z,99.90
2017-10-03T20:04:24.917Z,99.90
2017-10-03T20:06:52.458Z,99.90
2017-10-03T20:09:20.741Z,99.90
2017-10-03T20:11:48.283Z,99.90
2017-10-03T20:14:16.561Z,99.90
2017-10-03T20:16:44.876Z,99.90
2017-10-03T20:19:12.398Z,99.90
2017-10-03T20:21:40.658Z,99.90
2017-10-03T20:24:08.183Z,99.90
2017-10-03T20:26:35.718Z,99.90
2017-10-03T20:29:03.219Z,99.90
2017-10-03T20:31:30.740Z,99.90
2017-10-03T20:33:59.022Z,99.90
2017-10-03T20:36:26.518Z,99.90
2017-10-03T20:38:54.038Z,99.90
2017-10-03T20:41:21.586Z,99.90
2017-10-03T20:43:49.102Z,99.90
2017-10-03T20:46:16.669Z,99.90
2017-10-03T20:48:44.199Z,99.90
2017-10-03T20:51:12.477Z,99.90
2017-10-03T20:53:40.061Z,99.90
2017-10-03T20:56:07.575Z,99.90
2017-10-03T20:58:35.839Z,99.90
2017-10-03T21:01:03.378Z,99.90
2017-10-03T21:03:30.926Z,99.90
2017-10-03T21:05:59.204Z,99.90
2017-10-03T21:08:27.486Z,99.90
2017-10-03T21:10:55.003Z,99.90
2017-10-03T21:13:22.544Z,99.90
2017-10-03T21:15:50.070Z,99.90
2017-10-03T21:18:17.637Z,99.90
2017-10-03T21:20:45.140Z,99.90
2017-10-03T21:23:12.651Z,99.90
2017-10-03T21:25:40.180Z,99.90
2017-10-03T21:28:07.701Z,99.90
2017-10-03T21:30:35.215Z,99.90
2017-10-03T21:33:02.729Z,99.90
2017-10-03T21:35:30.276Z,99.90
2017-10-03T21:37:59.338Z,99.90
2017-10-03T21:40:26.834Z,99.90
2017-10-03T21:43:06.211Z,99.90
2017-10-03T21:45:33.715Z,99.90
2017-10-03T21:48:01.261Z,99.90
2017-10-03T21:50:28.773Z,99.90
2017-10-03T21:52:57.066Z,99.90
2017-10-03T21:55:24.577Z,99.90
2017-10-03T21:57:52.070Z,99.90
2017-10-03T22:00:20.374Z,99.90
2017-10-03T22:02:47.888Z,99.90
2017-10-03T22:05:16.214Z,99.90
2017-10-03T22:07:43.717Z,99.90
2017-10-03T22:10:11.219Z,99.90
2017-10-03T22:12:38.768Z,99.90
2017-10-03T22:15:06.285Z,99.90
2017-10-03T22:17:35.322Z,99.90
2017-10-03T22:20:02.814Z,99.90
2017-10-03T22:22:30.326Z,99.90
2017-10-03T22:24:58.623Z,99.90
2017-10-03T22:27:26.138Z,99.90
2017-10-03T22:29:53.747Z,99.90
2017-10-03T22:32:21.285Z,99.90
2017-10-03T22:34:48.804Z,99.90
2017-10-03T22:37:16.329Z,99.90
2017-10-03T22:39:43.841Z,99.90
2017-10-03T22:42:12.120Z,99.90
2017-10-03T22:44:40.398Z,99.90
2017-10-03T22:47:08.659Z,99.90
2017-10-03T22:49:36.210Z,99.90
2017-10-03T22:52:09.413Z,99.90
2017-10-03T22:54:37.839Z,99.90
2017-10-03T22:57:05.466Z,99.90
2017-10-03T22:59:33.726Z,99.90
2017-10-03T23:02:01.269Z,99.90
2017-10-03T23:04:28.786Z,99.90
2017-10-03T23:06:56.353Z,99.90
2017-10-03T23:09:23.910Z,99.90
2017-10-03T23:11:51.406Z,99.90
2017-10-03T23:14:19.679Z,99.90
2017-10-03T23:16:47.211Z,99.90
2017-10-03T23:19:14.715Z,99.90
2017-10-03T23:21:42.994Z,99.90
2017-10-03T23:24:10.538Z,99.90
2017-10-03T23:26:38.048Z,99.90
2017-10-03T23:29:05.559Z,99.90
2017-10-03T23:31:33.082Z,99.90
2017-10-03T23:34:00.579Z,99.90
2017-10-03T23:36:29.192Z,99.90
2017-10-03T23:38:56.735Z,99.90
2017-10-03T23:41:25.003Z,99.90
2017-10-03T23:43:53.572Z,99.90
2017-10-03T23:46:21.121Z,99.90
2017-10-03T23:48:48.613Z,99.90
2017-10-03T23:51:16.918Z,99.90
2017-10-03T23:53:44.451Z,99.90
2017-10-03T23:56:12.730Z,99.90
2017-10-03T23:58:41.004Z,99.90
